createdAt,value
2023-05-24T00:00:56.858Z,16.21
2023-05-24T00:03:28.189Z,16.14
2023-05-24T00:05:56.003Z,16.09
2023-05-24T00:08:23.093Z,16.01
2023-05-24T00:10:50.556Z,15.93
2023-05-24T00:13:17.848Z,15.94
2023-05-24T00:15:45.222Z,15.90
2023-05-24T00:18:12.126Z,15.86
2023-05-24T00:20:42.157Z,15.85
2023-05-24T00:23:11.653Z,15.81
2023-05-24T00:25:39.070Z,15.78
2023-05-24T00:28:06.005Z,15.76
2023-05-24T00:30:33.270Z,15.71
2023-05-24T00:33:00.473Z,15.67
2023-05-24T00:35:27.777Z,15.63
2023-05-24T00:37:54.704Z,15.59
2023-05-24T00:40:21.891Z,15.56
2023-05-24T00:42:50.804Z,15.57
2023-05-24T00:45:18.242Z,15.59
2023-05-24T00:47:45.836Z,15.61
2023-05-24T00:50:14.562Z,15.60
2023-05-24T00:52:42.127Z,15.61
2023-05-24T00:55:09.807Z,15.58
2023-05-24T00:57:37.269Z,15.57
2023-05-24T01:00:05.406Z,15.55
2023-05-24T01:02:34.821Z,15.56
2023-05-24T01:09:31.236Z,15.46
2023-05-24T01:12:17.292Z,15.36
2023-05-24T01:15:04.989Z,15.30
2023-05-24T01:17:37.593Z,15.25
2023-05-24T01:20:09.103Z,15.19
2023-05-24T01:22:55.328Z,15.12
2023-05-24T01:25:33.901Z,15.04
2023-05-24T01:28:04.270Z,14.96
2023-05-24T01:30:31.383Z,14.87
2023-05-24T01:32:58.656Z,14.81
2023-05-24T01:35:25.779Z,14.73
2023-05-24T01:37:53.138Z,14.61
2023-05-24T01:40:20.208Z,14.55
2023-05-24T01:42:59.831Z,14.45
2023-05-24T01:45:34.402Z,14.33
2023-05-24T01:48:07.288Z,14.18
2023-05-24T01:50:43.497Z,14.08
2023-05-24T01:53:13.354Z,14.00
2023-05-24T01:55:40.812Z,13.88
2023-05-24T01:58:09.630Z,13.78
2023-05-24T02:00:39.146Z,13.72
2023-05-24T02:03:06.907Z,13.61
2023-05-24T02:05:33.962Z,13.63
2023-05-24T02:08:06.180Z,13.52
2023-05-24T02:10:33.421Z,13.44
2023-05-24T02:13:00.723Z,13.39
2023-05-24T02:15:30.522Z,13.33
2023-05-24T02:17:58.684Z,13.33
2023-05-24T02:20:26.626Z,13.29
2023-05-24T02:22:54.186Z,13.27
2023-05-24T02:25:21.109Z,13.31
2023-05-24T02:27:48.708Z,13.30
2023-05-24T02:30:18.228Z,13.35
2023-05-24T02:32:47.954Z,13.40
2023-05-24T02:35:15.061Z,13.38
2023-05-24T02:37:42.463Z,13.29
2023-05-24T02:40:09.903Z,13.30
2023-05-24T02:42:37.155Z,13.29
2023-05-24T02:45:04.288Z,13.17
2023-05-24T02:47:31.694Z,13.13
2023-05-24T02:49:58.596Z,13.12
2023-05-24T02:52:26.857Z,13.24
2023-05-24T02:54:54.001Z,13.36
2023-05-24T02:57:22.862Z,13.35
2023-05-24T02:59:50.631Z,13.38
2023-05-24T03:02:19.598Z,13.43
2023-05-24T03:04:48.958Z,13.47
2023-05-24T03:07:16.466Z,13.55
2023-05-24T03:09:43.340Z,13.61
2023-05-24T03:12:10.569Z,13.73
2023-05-24T03:14:38.236Z,13.76
2023-05-24T03:17:08.673Z,13.77
2023-05-24T03:19:35.630Z,13.77
2023-05-24T03:22:02.988Z,13.76
2023-05-24T03:24:29.937Z,13.75
2023-05-24T03:26:57.630Z,13.79
2023-05-24T03:29:24.652Z,13.81
2023-05-24T03:31:53.994Z,13.87
2023-05-24T03:34:21.066Z,13.89
2023-05-24T03:36:48.390Z,13.96
2023-05-24T03:39:15.462Z,14.11
2023-05-24T03:41:55.155Z,14.60
2023-05-24T03:44:22.104Z,14.99
2023-05-24T03:46:49.343Z,15.44
2023-05-24T03:49:16.538Z,15.72
2023-05-24T03:51:44.222Z,15.79
2023-05-24T03:54:11.392Z,16.22
2023-05-24T03:57:19.384Z,16.37
2023-05-24T03:59:47.099Z,16.60
2023-05-24T04:02:14.751Z,16.60
2023-05-24T04:04:44.666Z,16.27
2023-05-24T04:07:16.602Z,16.11
2023-05-24T04:09:43.762Z,15.89
2023-05-24T04:12:11.879Z,15.64
2023-05-24T04:14:42.062Z,15.51
2023-05-24T04:17:10.125Z,15.53
2023-05-24T04:23:42.445Z,15.67
2023-05-24T04:26:11.145Z,15.64
2023-05-24T04:28:38.544Z,15.63
2023-05-24T04:31:06.354Z,15.61
2023-05-24T04:33:34.382Z,15.60
2023-05-24T04:36:02.018Z,15.63
2023-05-24T04:38:36.344Z,15.73
2023-05-24T04:41:03.397Z,15.86
2023-05-24T04:43:30.680Z,15.94
2023-05-24T04:45:57.905Z,15.81
2023-05-24T04:48:25.202Z,15.98
2023-05-24T04:50:52.725Z,16.05
2023-05-24T04:53:20.353Z,16.15
2023-05-24T04:55:50.249Z,16.44
2023-05-24T04:58:19.858Z,16.37
2023-05-24T05:00:47.142Z,16.41
2023-05-24T05:03:14.649Z,16.36
2023-05-24T05:05:41.941Z,16.43
2023-05-24T05:08:09.810Z,16.49
2023-05-24T05:10:37.297Z,16.61
2023-05-24T05:13:04.778Z,17.56
2023-05-24T05:15:32.770Z,18.11
2023-05-24T05:18:02.667Z,17.98
2023-05-24T05:20:29.706Z,17.66
2023-05-24T05:22:56.962Z,17.88
2023-05-24T05:25:23.909Z,18.05
2023-05-24T05:27:51.203Z,18.85
2023-05-24T05:30:18.212Z,18.81
2023-05-24T05:32:47.922Z,18.64
2023-05-24T05:35:14.872Z,18.66
2023-05-24T05:37:44.566Z,18.05
2023-05-24T05:40:11.802Z,18.14
2023-05-24T05:42:39.156Z,17.96
2023-05-24T05:45:06.429Z,17.79
2023-05-24T05:47:33.771Z,17.52
2023-05-24T05:50:00.874Z,17.40
2023-05-24T05:52:28.036Z,17.42
2023-05-24T05:54:54.960Z,17.22
2023-05-24T05:57:24.457Z,17.33
2023-05-24T05:59:51.768Z,17.59
2023-05-24T06:02:19.303Z,17.56
2023-05-24T06:04:47.036Z,17.78
2023-05-24T06:07:14.341Z,17.69
2023-05-24T06:09:43.713Z,17.81
2023-05-24T06:12:11.059Z,17.80
2023-05-24T06:14:40.837Z,17.97
2023-05-24T06:17:08.221Z,18.13
2023-05-24T06:19:35.113Z,18.08
2023-05-24T06:22:02.872Z,17.97
2023-05-24T06:24:29.895Z,18.37
2023-05-24T06:26:57.219Z,18.67
2023-05-24T06:29:25.427Z,18.37
2023-05-24T06:31:53.100Z,18.37
2023-05-24T06:34:23.109Z,18.79
2023-05-24T06:36:51.757Z,18.43
2023-05-24T06:39:19.083Z,18.60
2023-05-24T06:41:47.365Z,18.82
2023-05-24T06:44:17.180Z,19.30
2023-05-24T06:46:44.691Z,19.96
2023-05-24T06:49:13.915Z,20.55
2023-05-24T06:51:41.181Z,20.44
2023-05-24T06:54:08.145Z,21.80
2023-05-24T06:56:35.719Z,21.27
2023-05-24T06:59:02.666Z,20.33
2023-05-24T07:01:29.999Z,22.28
2023-05-24T07:03:57.048Z,23.45
2023-05-24T07:06:27.956Z,23.30
2023-05-24T07:08:54.978Z,20.88
2023-05-24T07:11:24.747Z,19.87
2023-05-24T07:13:51.729Z,20.11
2023-05-24T07:16:19.103Z,22.43
2023-05-24T07:18:48.551Z,23.49
2023-05-24T07:21:16.005Z,24.84
2023-05-24T07:23:42.920Z,24.93
2023-05-24T07:26:10.243Z,25.98
2023-05-24T07:28:38.908Z,26.11
2023-05-24T07:31:08.355Z,25.89
2023-05-24T07:33:36.462Z,24.16
2023-05-24T07:36:07.354Z,25.52
2023-05-24T07:38:35.103Z,25.64
2023-05-24T07:41:06.458Z,25.30
2023-05-24T07:43:33.415Z,25.06
2023-05-24T07:46:00.711Z,25.70
2023-05-24T07:48:27.714Z,25.04
2023-05-24T07:50:55.075Z,23.29
2023-05-24T07:53:23.063Z,22.56
2023-05-24T07:55:50.946Z,22.41
2023-05-24T07:58:17.925Z,22.11
2023-05-24T08:00:45.859Z,23.24
2023-05-24T08:03:14.799Z,24.19
2023-05-24T08:05:42.439Z,23.80
2023-05-24T08:08:10.430Z,24.56
2023-05-24T08:10:37.732Z,24.70
2023-05-24T08:13:05.747Z,24.84
2023-05-24T08:15:33.236Z,23.76
2023-05-24T08:18:05.526Z,22.75
2023-05-24T08:20:36.369Z,22.49
2023-05-24T08:23:05.958Z,22.48
2023-05-24T08:25:33.796Z,23.04
2023-05-24T08:28:02.734Z,23.50
2023-05-24T08:30:30.784Z,24.19
2023-05-24T08:33:00.231Z,23.89
2023-05-24T08:35:27.538Z,24.89
2023-05-24T08:37:54.933Z,24.86
2023-05-24T08:40:24.454Z,24.95
2023-05-24T08:42:52.578Z,26.00
2023-05-24T08:45:21.537Z,26.00
2023-05-24T08:47:50.462Z,25.90
2023-05-24T08:50:18.302Z,25.32
2023-05-24T08:52:46.090Z,26.34
2023-05-24T08:55:16.338Z,27.23
2023-05-24T08:57:44.667Z,26.91
2023-05-24T09:00:13.172Z,25.90
2023-05-24T09:02:41.176Z,26.51
2023-05-24T09:05:12.544Z,24.82
2023-05-24T09:07:40.859Z,23.30
2023-05-24T09:10:10.831Z,22.43
2023-05-24T09:12:39.535Z,22.25
2023-05-24T09:15:09.991Z,21.79
2023-05-24T09:17:37.916Z,22.13
2023-05-24T09:20:07.529Z,22.07
2023-05-24T09:22:37.447Z,21.65
2023-05-24T09:25:06.474Z,21.94
2023-05-24T09:27:35.184Z,22.33
2023-05-24T09:30:05.583Z,22.69
2023-05-24T09:32:32.599Z,23.35
2023-05-24T09:35:00.348Z,23.56
2023-05-24T09:37:32.117Z,24.25
2023-05-24T09:40:02.545Z,25.61
2023-05-24T09:42:30.352Z,25.40
2023-05-24T09:45:06.882Z,26.36
2023-05-24T09:47:35.074Z,25.59
2023-05-24T09:50:03.616Z,24.13
2023-05-24T09:52:31.097Z,23.05
2023-05-24T09:55:00.260Z,22.81
2023-05-24T09:57:28.306Z,22.24
2023-05-24T09:59:56.542Z,21.78
2023-05-24T10:02:26.069Z,22.30
2023-05-24T10:04:59.325Z,22.73
2023-05-24T10:07:27.214Z,22.66
2023-05-24T10:09:55.401Z,23.39
2023-05-24T10:12:23.393Z,22.94
2023-05-24T10:14:51.667Z,22.77
2023-05-24T10:17:18.789Z,22.03
2023-05-24T10:19:46.398Z,22.07
2023-05-24T10:22:14.276Z,21.67
2023-05-24T10:24:46.659Z,22.42
2023-05-24T10:27:19.492Z,21.82
2023-05-24T10:29:55.295Z,22.18
2023-05-24T10:32:24.620Z,21.39
2023-05-24T10:34:53.714Z,21.80
2023-05-24T10:37:24.900Z,23.22
2023-05-24T10:39:52.378Z,23.04
2023-05-24T10:42:19.821Z,22.45
2023-05-24T10:44:49.537Z,22.84
2023-05-24T10:47:18.176Z,23.09
2023-05-24T10:49:51.331Z,22.40
2023-05-24T10:52:21.043Z,22.91
2023-05-24T10:55:05.447Z,22.82
2023-05-24T10:57:33.194Z,23.02
2023-05-24T11:00:30.719Z,22.85
2023-05-24T11:03:04.121Z,22.59
2023-05-24T11:05:37.609Z,21.68
2023-05-24T11:08:06.937Z,21.95
2023-05-24T11:10:35.816Z,22.17
2023-05-24T11:13:03.479Z,22.29
2023-05-24T11:15:30.843Z,21.98
2023-05-24T11:18:09.307Z,22.89
2023-05-24T11:20:36.801Z,23.64
2023-05-24T11:23:04.333Z,22.80
2023-05-24T11:25:33.116Z,22.32
2023-05-24T11:28:02.023Z,22.31
2023-05-24T11:30:29.284Z,22.43
2023-05-24T11:32:57.246Z,23.71
2023-05-24T11:35:28.177Z,23.22
2023-05-24T11:37:55.154Z,22.80
2023-05-24T11:40:22.458Z,22.80
2023-05-24T11:42:52.536Z,22.46
2023-05-24T11:45:20.188Z,22.32
2023-05-24T11:47:49.189Z,22.51
2023-05-24T11:50:17.301Z,23.17
2023-05-24T11:52:44.301Z,22.63
2023-05-24T11:55:16.347Z,22.38
2023-05-24T11:57:49.327Z,22.34
2023-05-24T12:00:26.548Z,21.95
2023-05-24T12:03:03.011Z,21.58
2023-05-24T12:05:33.108Z,21.43
2023-05-24T12:08:01.940Z,21.66
2023-05-24T12:10:29.191Z,21.97
2023-05-24T12:12:57.071Z,22.05
2023-05-24T12:15:24.485Z,22.34
2023-05-24T12:17:52.395Z,22.33
2023-05-24T12:20:20.577Z,22.26
2023-05-24T12:22:54.264Z,22.54
2023-05-24T12:25:22.923Z,22.82
2023-05-24T12:27:54.463Z,22.95
2023-05-24T12:30:25.964Z,23.36
2023-05-24T12:32:55.946Z,22.87
2023-05-24T12:35:23.728Z,22.58
2023-05-24T12:37:50.904Z,22.32
2023-05-24T12:40:22.176Z,22.26
2023-05-24T12:42:56.865Z,21.79
2023-05-24T12:45:26.072Z,21.95
2023-05-24T12:47:57.656Z,22.10
2023-05-24T12:50:28.098Z,22.16
2023-05-24T12:52:55.126Z,22.30
2023-05-24T12:55:23.124Z,22.32
2023-05-24T12:57:54.389Z,22.29
2023-05-24T13:00:22.985Z,21.90
2023-05-24T13:02:52.877Z,21.66
2023-05-24T13:05:20.392Z,21.58
2023-05-24T13:07:47.386Z,21.49
2023-05-24T13:10:14.699Z,21.38
2023-05-24T13:12:41.998Z,21.11
2023-05-24T13:15:10.020Z,21.00
2023-05-24T13:17:37.042Z,20.86
2023-05-24T13:20:07.280Z,21.04
2023-05-24T13:22:35.718Z,21.24
2023-05-24T13:25:05.542Z,21.27
2023-05-24T13:27:32.534Z,21.38
2023-05-24T13:30:01.277Z,21.51
2023-05-24T13:32:28.976Z,21.53
2023-05-24T13:34:56.271Z,21.60
2023-05-24T13:37:23.753Z,21.41
2023-05-24T13:39:53.371Z,21.21
2023-05-24T13:42:21.018Z,21.11
2023-05-24T13:44:48.467Z,20.95
2023-05-24T13:47:31.105Z,20.64
2023-05-24T13:50:09.376Z,20.50
2023-05-24T13:52:37.105Z,20.52
2023-05-24T13:55:07.359Z,20.65
2023-05-24T14:00:09.104Z,20.58
2023-05-24T14:02:39.490Z,20.54
2023-05-24T14:05:24.827Z,20.49
2023-05-24T14:07:54.436Z,20.38
2023-05-24T14:10:22.065Z,20.47
2023-05-24T14:12:59.335Z,20.63
2023-05-24T14:15:31.295Z,20.82
2023-05-24T14:18:01.510Z,21.13
2023-05-24T14:20:28.923Z,20.99
2023-05-24T14:22:58.393Z,21.15
2023-05-24T14:25:25.947Z,21.27
2023-05-24T14:27:52.954Z,21.37
2023-05-24T14:30:20.251Z,21.45
2023-05-24T14:32:47.174Z,21.50
2023-05-24T14:35:14.517Z,21.60
2023-05-24T14:37:41.467Z,21.58
2023-05-24T14:40:09.156Z,21.57
2023-05-24T14:42:36.350Z,21.61
2023-05-24T14:45:06.530Z,21.72
2023-05-24T14:47:33.752Z,21.89
2023-05-24T14:50:03.648Z,21.82
2023-05-24T14:52:33.264Z,21.92
2023-05-24T14:55:03.397Z,21.98
2023-05-24T14:57:30.974Z,21.82
2023-05-24T15:00:00.679Z,21.71
2023-05-24T15:02:27.955Z,21.65
2023-05-24T15:04:55.351Z,21.44
2023-05-24T15:07:24.604Z,21.44
2023-05-24T15:09:51.906Z,21.17
2023-05-24T15:12:19.733Z,21.24
2023-05-24T15:14:49.045Z,21.49
2023-05-24T15:17:16.240Z,21.45
2023-05-24T15:19:43.556Z,21.50
2023-05-24T15:22:10.780Z,21.63
2023-05-24T15:24:38.005Z,21.64
2023-05-24T15:27:07.416Z,21.79
2023-05-24T15:29:34.679Z,21.73
2023-05-24T15:32:02.140Z,21.66
2023-05-24T15:34:29.441Z,21.32
2023-05-24T15:36:59.362Z,21.46
2023-05-24T15:39:27.046Z,21.21
2023-05-24T15:41:54.075Z,21.26
2023-05-24T15:44:23.659Z,21.10
2023-05-24T15:46:50.876Z,20.94
2023-05-24T15:49:18.233Z,20.77
2023-05-24T15:54:15.620Z,20.53
2023-05-24T15:56:42.844Z,20.37
2023-05-24T15:59:10.167Z,20.23
2023-05-24T16:01:37.404Z,20.04
2023-05-24T16:04:04.731Z,19.89
2023-05-24T16:06:31.797Z,19.82
2023-05-24T16:08:59.366Z,19.63
2023-05-24T16:11:26.285Z,19.48
2023-05-24T16:13:54.444Z,19.42
2023-05-24T16:16:23.890Z,19.37
2023-05-24T16:18:51.247Z,19.27
2023-05-24T16:21:18.165Z,19.18
2023-05-24T16:23:45.571Z,19.20
2023-05-24T16:26:12.535Z,19.19
2023-05-24T16:28:39.781Z,19.17
2023-05-24T16:31:06.831Z,19.18
2023-05-24T16:33:34.175Z,19.12
2023-05-24T16:36:03.678Z,19.09
2023-05-24T16:38:30.974Z,19.06
2023-05-24T16:40:57.912Z,18.98
2023-05-24T16:43:25.927Z,18.94
2023-05-24T16:45:55.373Z,18.90
2023-05-24T16:48:28.779Z,18.84
2023-05-24T16:50:58.551Z,18.79
2023-05-24T16:53:26.878Z,18.73
2023-05-24T16:55:57.166Z,18.66
2023-05-24T16:58:25.004Z,18.61
2023-05-24T17:00:54.668Z,18.56
2023-05-24T17:03:27.903Z,18.48
2023-05-24T17:05:56.886Z,18.43
2023-05-24T17:08:26.002Z,18.42
2023-05-24T17:10:59.156Z,18.36
2023-05-24T17:13:29.432Z,18.33
2023-05-24T17:15:57.081Z,18.32
2023-05-24T17:18:28.437Z,18.29
2023-05-24T17:20:56.457Z,18.21
2023-05-24T17:23:25.064Z,18.18
2023-05-24T17:25:52.534Z,18.15
2023-05-24T17:28:19.991Z,18.11
2023-05-24T17:30:47.500Z,18.07
2023-05-24T17:33:17.230Z,18.04
2023-05-24T17:35:44.191Z,17.98
2023-05-24T17:38:11.516Z,17.93
2023-05-24T17:40:38.505Z,17.95
2023-05-24T17:43:06.441Z,17.90
2023-05-24T17:45:33.892Z,17.88
2023-05-24T17:48:01.393Z,17.81
2023-05-24T17:50:28.593Z,17.80
2023-05-24T17:52:56.118Z,17.79
2023-05-24T17:55:23.252Z,17.75
2023-05-24T17:57:50.607Z,17.74
2023-05-24T18:00:17.738Z,17.70
2023-05-24T18:02:48.184Z,17.62
2023-05-24T18:05:16.745Z,17.60
2023-05-24T18:07:44.511Z,17.55
2023-05-24T18:10:11.610Z,17.43
2023-05-24T18:12:41.472Z,17.38
2023-05-24T18:15:08.623Z,17.28
2023-05-24T18:17:35.971Z,17.20
2023-05-24T18:20:05.828Z,17.13
2023-05-24T18:22:33.186Z,17.13
2023-05-24T18:25:02.750Z,17.10
2023-05-24T18:27:30.115Z,17.09
2023-05-24T18:30:01.978Z,17.03
2023-05-24T18:32:32.039Z,17.02
2023-05-24T18:34:59.229Z,17.00
2023-05-24T18:37:28.817Z,16.91
2023-05-24T18:39:56.038Z,16.84
2023-05-24T18:42:25.342Z,16.80
2023-05-24T18:44:52.762Z,16.76
2023-05-24T18:47:20.036Z,16.70
2023-05-24T18:49:47.020Z,16.60
2023-05-24T18:52:14.691Z,16.48
2023-05-24T18:54:44.092Z,16.38
2023-05-24T18:57:11.416Z,16.31
2023-05-24T18:59:38.831Z,16.24
2023-05-24T19:02:08.762Z,16.19
2023-05-24T19:04:35.880Z,16.13
2023-05-24T19:07:03.103Z,16.02
2023-05-24T19:09:30.184Z,15.90
2023-05-24T19:11:59.304Z,15.85
2023-05-24T19:14:31.130Z,15.77
2023-05-24T19:16:58.672Z,15.71
2023-05-24T19:19:29.166Z,15.69
2023-05-24T19:21:59.122Z,15.63
2023-05-24T19:24:28.472Z,15.54
2023-05-24T19:26:55.819Z,15.45
2023-05-24T19:29:22.775Z,15.40
2023-05-24T19:31:51.052Z,15.34
2023-05-24T19:34:18.970Z,15.30
2023-05-24T19:36:46.510Z,15.26
2023-05-24T19:39:16.974Z,15.24
2023-05-24T19:41:44.330Z,15.14
2023-05-24T19:44:11.270Z,15.09
2023-05-24T19:46:38.756Z,15.01
2023-05-24T19:49:08.258Z,15.01
2023-05-24T19:51:35.853Z,14.96
2023-05-24T19:54:03.024Z,14.96
2023-05-24T19:56:30.455Z,14.94
2023-05-24T19:58:57.475Z,14.89
2023-05-24T20:01:24.963Z,14.90
2023-05-24T20:03:51.994Z,14.86
2023-05-24T20:06:19.473Z,14.82
2023-05-24T20:08:46.815Z,14.78
2023-05-24T20:11:14.496Z,14.78
2023-05-24T20:13:43.881Z,14.79
2023-05-24T20:16:11.605Z,14.74
2023-05-24T20:18:38.698Z,14.76
2023-05-24T20:21:05.927Z,14.79
2023-05-24T20:23:32.919Z,14.71
2023-05-24T20:26:00.923Z,14.64
2023-05-24T20:28:31.871Z,14.59
2023-05-24T20:30:59.624Z,14.56
2023-05-24T20:33:26.691Z,14.50
2023-05-24T20:35:54.665Z,14.48
2023-05-24T20:38:24.477Z,14.42
2023-05-24T20:40:51.919Z,14.39
2023-05-24T20:43:19.172Z,14.32
2023-05-24T20:45:46.657Z,14.22
2023-05-24T20:48:13.785Z,14.18
2023-05-24T20:50:41.171Z,14.09
2023-05-24T20:53:08.138Z,14.01
2023-05-24T20:55:37.652Z,13.94
2023-05-24T20:58:04.899Z,13.88
2023-05-24T21:00:32.194Z,13.82
2023-05-24T21:03:05.419Z,13.79
2023-05-24T21:05:36.414Z,13.73
2023-05-24T21:08:04.173Z,13.63
2023-05-24T21:10:32.386Z,13.53
2023-05-24T21:12:59.710Z,13.47
2023-05-24T21:15:27.065Z,13.36
2023-05-24T21:17:54.149Z,13.35
2023-05-24T21:20:21.643Z,13.35
2023-05-24T21:22:48.804Z,13.33
2023-05-24T21:25:18.433Z,13.26
2023-05-24T21:27:45.394Z,13.20
2023-05-24T21:30:13.029Z,13.12
2023-05-24T21:32:40.072Z,13.07
2023-05-24T21:35:07.701Z,12.98
2023-05-24T21:37:34.599Z,12.91
2023-05-24T21:40:05.341Z,12.83
2023-05-24T21:42:32.319Z,12.79
2023-05-24T21:44:59.689Z,12.81
2023-05-24T21:47:26.742Z,12.86
2023-05-24T21:49:55.008Z,12.84
2023-05-24T21:52:23.078Z,12.89
2023-05-24T21:54:50.470Z,12.91
2023-05-24T21:57:17.621Z,12.88
2023-05-24T21:59:45.094Z,12.79
2023-05-24T22:02:14.299Z,12.74
2023-05-24T22:04:41.837Z,12.81
2023-05-24T22:07:08.759Z,12.75
2023-05-24T22:09:38.727Z,12.73
2023-05-24T22:12:08.125Z,12.72
2023-05-24T22:14:35.348Z,12.68
2023-05-24T22:17:04.874Z,12.74
2023-05-24T22:19:39.549Z,12.69
2023-05-24T22:22:12.616Z,12.63
2023-05-24T22:24:40.958Z,12.63
2023-05-24T22:27:13.678Z,12.67
2023-05-24T22:29:43.335Z,12.62
2023-05-24T22:32:10.366Z,12.63
2023-05-24T22:34:37.674Z,12.61
2023-05-24T22:37:04.855Z,12.55
2023-05-24T22:39:32.391Z,12.52
2023-05-24T22:41:59.392Z,12.45
2023-05-24T22:44:26.877Z,12.34
2023-05-24T22:46:56.568Z,12.28
2023-05-24T22:49:23.824Z,12.28
2023-05-24T22:51:51.283Z,12.30
2023-05-24T22:54:18.567Z,12.26
2023-05-24T22:56:46.322Z,12.22
2023-05-24T22:59:13.571Z,12.20
2023-05-24T23:01:40.662Z,12.14
2023-05-24T23:04:21.320Z,12.12
2023-05-24T23:06:52.668Z,12.04
2023-05-24T23:09:29.103Z,12.02
2023-05-24T23:11:58.458Z,12.01
2023-05-24T23:14:26.091Z,11.92
2023-05-24T23:16:53.057Z,11.87
2023-05-24T23:19:20.287Z,11.90
2023-05-24T23:21:47.598Z,11.91
2023-05-24T23:24:15.958Z,11.87
2023-05-24T23:26:43.090Z,11.83
2023-05-24T23:29:10.652Z,11.81
2023-05-24T23:31:37.964Z,11.79
2023-05-24T23:34:05.882Z,11.73
2023-05-24T23:36:33.005Z,11.77
2023-05-24T23:39:00.277Z,11.80
2023-05-24T23:41:27.323Z,11.81
2023-05-24T23:43:57.019Z,11.79
2023-05-24T23:46:23.957Z,11.74
2023-05-24T23:48:51.261Z,11.76
2023-05-24T23:51:19.614Z,11.76
2023-05-24T23:53:46.996Z,11.66
2023-05-24T23:56:13.959Z,11.62
2023-05-24T23:58:42.057Z,11.50
